Terminal Aerodrome Forecast
Issued by NWS

Home | Current Version | Previous Version | Graphics & Text | Print | Product List | Glossary On
Versions: 1 2 3 4 5 6 7 8 9 10 11 12
606
FTUS42 KMHX 251740
TAFOAJ
TAF
KOAJ 251740Z 2518/2618 19008KT P6SM SCT040
     FM260100 21005KT P6SM SKC
     FM261000 VRB04KT 3SM BR SKC
     FM261300 23008KT P6SM FEW050 FEW250
      AMD LTD TO CLD VIS AND WIND=

USA.gov is the U.S. government's official web portal to all federal, state and local government web resources and services.